Terminal Aerodrome Forecast
Issued by NWS Wilmington, NC

Home | Current Version | Previous Version | Text Only | Print | Product List | Glossary On
Versions: 1 2 3 4 5 6 7 8 9 10 11 12 13 14 15
000
FTUS42 KILM 251120
TAFMYR
TAF
KMYR 251120Z 2512/2612 VRB03KT P6SM BKN120
     FM251300 24010KT P6SM VCSH SCT040 BKN080
     FM251500 23009KT 5SM -SHRA BKN040
      TEMPO 2517/2521 2SM +SHRA BKN020
     FM252100 20009G15KT P6SM -RA SCT014 BKN020
     FM260200 22010KT P6SM BKN008=

USA.gov is the U.S. government's official web portal to all federal, state and local government web resources and services.